Portada
METAR-TAF:

METAR-TAF

Aeropuertos :

Aeropuerto Internacional de Chuuk

Weno, Micronesia

latitud: 07-28N, longitud: 151-51E, altitud: 3 m

Observación

El informe se hizo hace 1 hora y 8 minutos, a las 01:50 UTC
Viento 7 kt del noreste con ráfagas de 17 kt
Temperatura 32°C
Humedad 75%
Presión 1010 hPa
Visibilidad: 24.1 km
Escasas nubes a una altura de 1400 ft, Cumulus congestus.
Nubes dispersas a una altura de 29000 ft

METAR: PTKK 300150Z 05007G17KT 15SM FEW014TCU SCT290 32/27 A2983 RMK TCU NW-N SLP101 T03160270

Hora: 12:58 (02:58 UTC)

Pronóstico

El informe se hizo hace 3 horas y 35 minutos, a las 23:23 UTC
Pronóstico válido del 30 a las 00 UTC al 30 a las 24 UTC
Viento 8 kt del noreste
Visibilidad: 10 km
Escasas nubes a una altura de 1400 ft
Nubes dispersas a una altura de 12000 ft
chaparrones en las proximidades,

TAF: PTKK 292323Z 3000/3024 05008KT P6SM VCSH FEW014 SCT120

Observaciones y pronósticos meteorológicos de más de 4000 aeropuertos (mensajes METAR y TAF).

Los puntos amarillos y rojos representan las estaciones disponibles.

Ponga el ratón en el punto deseado para ver el nombre de la estación.

Haga clic para ver las observaciones y los pronósticos meteorológicos.

Para cambiar el mapa : haga clic en los botones verdes con una cruz de color negro para hacer un zoom, en el botón verde con un guión para alejar o en las flechas verdes para mapas adyacentes.


METAR-TAF: